createdAt,value
2022-10-20T00:00:07.322Z,5.97
2022-10-20T00:02:34.785Z,6.00
2022-10-20T00:05:02.582Z,5.60
2022-10-20T00:07:29.947Z,5.70
2022-10-20T00:09:57.338Z,5.67
2022-10-20T00:12:24.688Z,5.43
2022-10-20T00:14:53.406Z,5.80
2022-10-20T00:17:20.790Z,5.50
2022-10-20T00:19:48.694Z,6.30
2022-10-20T00:22:16.209Z,5.83
2022-10-20T00:24:43.814Z,6.73
2022-10-20T00:27:11.629Z,6.07
2022-10-20T00:29:39.054Z,6.23
2022-10-20T00:32:07.727Z,6.00
2022-10-20T00:34:35.105Z,6.10
2022-10-20T00:37:02.487Z,5.90
2022-10-20T00:39:30.886Z,5.80
2022-10-20T00:41:58.272Z,6.07
2022-10-20T00:44:44.384Z,5.87
2022-10-20T00:47:14.207Z,6.30
2022-10-20T00:49:41.692Z,6.03
2022-10-20T00:52:09.156Z,5.53
2022-10-20T00:54:36.791Z,6.27
2022-10-20T00:57:04.295Z,6.00
2022-10-20T00:59:34.669Z,5.37
2022-10-20T01:02:03.146Z,5.90
2022-10-20T01:04:32.198Z,5.83
2022-10-20T01:07:00.120Z,5.77
2022-10-20T01:09:27.692Z,6.20
2022-10-20T01:11:58.154Z,6.20
2022-10-20T01:14:30.314Z,6.07
2022-10-20T01:17:00.208Z,6.20
2022-10-20T01:19:42.490Z,5.93
2022-10-20T01:22:17.926Z,5.77
2022-10-20T01:25:00.201Z,6.10
2022-10-20T01:27:39.300Z,6.63
2022-10-20T01:30:09.299Z,6.10
2022-10-20T01:32:52.792Z,5.60
2022-10-20T01:35:23.808Z,5.83
2022-10-20T01:37:54.241Z,5.80
2022-10-20T01:40:25.338Z,6.53
2022-10-20T01:42:55.504Z,5.80
2022-10-20T01:45:24.836Z,6.47
2022-10-20T01:47:52.724Z,6.03
2022-10-20T01:50:20.846Z,6.07
2022-10-20T01:52:48.304Z,6.20
2022-10-20T01:55:17.086Z,6.30
2022-10-20T01:57:50.021Z,6.07
2022-10-20T02:00:19.126Z,6.30
2022-10-20T02:02:55.308Z,6.20
2022-10-20T02:05:30.692Z,6.07
2022-10-20T02:08:01.108Z,5.70
2022-10-20T02:10:30.657Z,6.07
2022-10-20T02:13:00.225Z,6.10
2022-10-20T02:15:29.278Z,5.60
2022-10-20T02:18:00.024Z,5.40
2022-10-20T02:20:27.775Z,5.70
2022-10-20T02:22:56.123Z,6.30
2022-10-20T02:25:24.184Z,6.53
2022-10-20T02:27:52.568Z,6.00
2022-10-20T02:30:20.206Z,5.60
2022-10-20T02:32:52.712Z,5.63
2022-10-20T02:35:21.487Z,6.03
2022-10-20T02:37:48.934Z,5.77
2022-10-20T02:40:16.559Z,5.30
2022-10-20T02:42:44.032Z,6.10
2022-10-20T02:45:11.852Z,5.87
2022-10-20T02:47:39.598Z,5.73
2022-10-20T02:50:08.903Z,6.67
2022-10-20T02:52:36.666Z,6.20
2022-10-20T02:55:04.235Z,6.47
2022-10-20T02:57:31.636Z,5.93
2022-10-20T02:59:59.004Z,5.80
2022-10-20T03:02:26.399Z,5.70
2022-10-20T03:04:53.799Z,6.37
2022-10-20T03:07:22.536Z,5.30
2022-10-20T03:09:49.936Z,5.60
2022-10-20T03:12:17.460Z,5.93
2022-10-20T03:14:45.444Z,5.53
2022-10-20T03:17:12.802Z,5.50
2022-10-20T03:19:41.312Z,5.30
2022-10-20T03:22:08.704Z,5.70
2022-10-20T03:24:37.435Z,5.63
2022-10-20T03:27:05.077Z,5.30
2022-10-20T03:29:32.443Z,5.63
2022-10-20T03:31:59.802Z,6.00
2022-10-20T03:34:27.232Z,5.70
2022-10-20T03:36:54.711Z,5.60
2022-10-20T03:39:22.237Z,5.17
2022-10-20T03:41:50.993Z,5.87
2022-10-20T03:44:18.436Z,5.57
2022-10-20T03:46:45.866Z,5.90
2022-10-20T03:49:13.382Z,5.10
2022-10-20T03:51:40.805Z,5.60
2022-10-20T03:54:08.201Z,5.23
2022-10-20T03:56:35.581Z,5.87
2022-10-20T04:01:36.791Z,6.00
2022-10-20T04:04:04.361Z,5.60
2022-10-20T04:06:32.680Z,5.90
2022-10-20T04:09:00.197Z,5.80
2022-10-20T04:11:27.840Z,5.57
2022-10-20T04:13:55.270Z,5.37
2022-10-20T04:16:24.060Z,5.57
2022-10-20T04:18:52.507Z,5.80
2022-10-20T04:21:19.893Z,5.60
2022-10-20T04:23:47.222Z,5.37
2022-10-20T04:26:16.307Z,6.17
2022-10-20T04:28:43.719Z,5.40
2022-10-20T04:31:11.061Z,5.80
2022-10-20T04:33:39.814Z,5.90
2022-10-20T04:36:08.099Z,5.67
2022-10-20T04:38:36.275Z,6.00
2022-10-20T04:41:04.665Z,5.33
2022-10-20T04:43:32.619Z,5.63
2022-10-20T04:46:07.026Z,5.67
2022-10-20T04:48:36.216Z,5.40
2022-10-20T04:51:06.321Z,5.37
2022-10-20T04:53:33.756Z,5.30
2022-10-20T04:56:01.266Z,5.40
2022-10-20T04:58:28.721Z,5.43
2022-10-20T05:01:01.083Z,5.30
2022-10-20T05:03:28.481Z,5.00
2022-10-20T05:05:55.889Z,5.60
2022-10-20T05:08:24.731Z,6.30
2022-10-20T05:10:52.142Z,6.57
2022-10-20T05:13:19.562Z,5.90
2022-10-20T05:15:52.499Z,5.50
2022-10-20T05:18:19.881Z,5.87
2022-10-20T05:21:07.304Z,5.60
2022-10-20T05:23:36.271Z,6.00
2022-10-20T05:26:04.474Z,6.40
2022-10-20T05:28:31.936Z,5.40
2022-10-20T05:31:01.903Z,6.50
2022-10-20T05:33:29.394Z,5.80
2022-10-20T05:35:56.857Z,5.17
2022-10-20T05:38:24.367Z,6.70
2022-10-20T05:40:53.126Z,7.70
2022-10-20T05:43:20.566Z,6.80
2022-10-20T05:45:54.031Z,6.53
2022-10-20T05:48:21.451Z,6.10
2022-10-20T05:50:48.866Z,6.20
2022-10-20T05:53:16.273Z,6.30
2022-10-20T05:55:43.667Z,6.20
2022-10-20T05:58:12.414Z,6.50
2022-10-20T06:00:41.980Z,5.53
2022-10-20T06:03:09.369Z,6.00
2022-10-20T06:05:36.766Z,5.50
2022-10-20T06:08:04.256Z,5.13
2022-10-20T06:10:31.653Z,5.70
2022-10-20T06:12:59.027Z,5.67
2022-10-20T06:15:27.739Z,6.07
2022-10-20T06:17:55.113Z,6.17
2022-10-20T06:20:22.475Z,6.07
2022-10-20T06:22:49.824Z,6.80
2022-10-20T06:25:17.520Z,6.00
2022-10-20T06:27:44.895Z,6.60
2022-10-20T06:30:12.661Z,6.50
2022-10-20T06:32:41.443Z,6.00
2022-10-20T06:35:08.872Z,6.20
2022-10-20T06:37:36.315Z,6.30
2022-10-20T06:40:04.065Z,6.30
2022-10-20T06:42:31.445Z,6.20
2022-10-20T06:44:59.139Z,6.00
2022-10-20T06:47:26.526Z,6.17
2022-10-20T06:49:55.272Z,5.70
2022-10-20T06:52:22.636Z,6.80
2022-10-20T06:54:49.985Z,6.57
2022-10-20T06:57:17.420Z,8.30
2022-10-20T06:59:44.788Z,7.07
2022-10-20T07:02:12.253Z,7.53
2022-10-20T07:04:39.737Z,6.30
2022-10-20T07:07:08.487Z,6.97
2022-10-20T07:09:35.827Z,7.00
2022-10-20T07:12:03.213Z,7.30
2022-10-20T07:14:32.418Z,7.20
2022-10-20T07:17:00.010Z,7.50
2022-10-20T07:19:27.409Z,7.67
2022-10-20T07:21:54.772Z,7.20
2022-10-20T07:24:23.554Z,7.93
2022-10-20T07:26:50.965Z,6.57
2022-10-20T07:29:19.906Z,7.23
2022-10-20T07:31:48.089Z,6.93
2022-10-20T07:34:31.728Z,7.23
2022-10-20T07:36:59.508Z,7.13
2022-10-20T07:39:28.405Z,7.47
2022-10-20T07:41:55.794Z,7.00
2022-10-20T07:44:23.215Z,7.70
2022-10-20T07:46:50.614Z,6.90
2022-10-20T07:52:05.487Z,7.77
2022-10-20T07:54:34.513Z,8.17
2022-10-20T07:57:01.934Z,8.40
2022-10-20T07:59:30.081Z,8.33
2022-10-20T08:01:59.623Z,7.90
2022-10-20T08:04:27.612Z,7.90
2022-10-20T08:06:54.954Z,8.30
2022-10-20T08:09:22.576Z,7.73
2022-10-20T08:11:54.588Z,8.30
2022-10-20T08:14:23.335Z,7.77
2022-10-20T08:16:54.863Z,7.07
2022-10-20T08:19:27.511Z,8.90
2022-10-20T08:21:54.952Z,8.10
2022-10-20T08:24:22.361Z,8.27
2022-10-20T08:26:51.124Z,7.60
2022-10-20T08:29:18.520Z,9.57
2022-10-20T08:31:46.009Z,9.27
2022-10-20T08:34:13.460Z,8.80
2022-10-20T08:36:40.942Z,8.80
2022-10-20T08:39:08.325Z,9.07
2022-10-20T08:41:55.273Z,8.80
2022-10-20T08:44:28.062Z,8.80
2022-10-20T08:46:55.563Z,7.33
2022-10-20T08:49:24.914Z,8.27
2022-10-20T08:51:52.694Z,8.20
2022-10-20T08:54:20.110Z,7.13
2022-10-20T08:56:47.707Z,8.10
2022-10-20T08:59:22.803Z,7.77
2022-10-20T09:01:51.589Z,8.80
2022-10-20T09:04:20.683Z,7.90
2022-10-20T09:06:49.456Z,8.40
2022-10-20T09:09:17.667Z,7.80
2022-10-20T09:11:45.505Z,7.40
2022-10-20T09:14:13.359Z,7.97
2022-10-20T09:16:58.775Z,7.97
2022-10-20T09:19:29.014Z,7.70
2022-10-20T09:21:58.166Z,7.40
2022-10-20T09:24:29.761Z,8.03
2022-10-20T09:26:59.662Z,7.90
2022-10-20T09:29:35.587Z,7.30
2022-10-20T09:32:15.401Z,7.83
2022-10-20T09:34:46.967Z,8.50
2022-10-20T09:37:16.992Z,7.70
2022-10-20T09:39:55.147Z,6.87
2022-10-20T09:42:24.783Z,8.20
2022-10-20T09:44:54.502Z,8.30
2022-10-20T09:47:23.344Z,7.40
2022-10-20T09:50:00.815Z,7.53
2022-10-20T09:52:34.098Z,8.00
2022-10-20T09:55:03.147Z,7.90
2022-10-20T09:57:31.719Z,7.23
2022-10-20T10:00:04.654Z,7.37
2022-10-20T10:02:40.736Z,8.40
2022-10-20T10:05:16.836Z,8.00
2022-10-20T10:07:44.191Z,7.97
2022-10-20T10:10:24.545Z,8.00
2022-10-20T10:12:52.672Z,7.90
2022-10-20T10:15:26.818Z,7.57
2022-10-20T10:17:54.754Z,8.83
2022-10-20T10:20:29.768Z,9.07
2022-10-20T10:23:08.739Z,8.83
2022-10-20T10:25:36.193Z,8.70
2022-10-20T10:28:06.890Z,10.23
2022-10-20T10:30:35.608Z,9.13
2022-10-20T10:33:03.044Z,8.83
2022-10-20T10:35:34.385Z,10.20
2022-10-20T10:38:02.082Z,9.53
2022-10-20T10:40:32.382Z,9.40
2022-10-20T10:43:08.739Z,10.20
2022-10-20T10:45:42.901Z,9.53
2022-10-20T10:48:25.155Z,9.93
2022-10-20T10:50:55.792Z,9.80
2022-10-20T10:53:32.577Z,9.97
2022-10-20T10:56:04.330Z,10.27
2022-10-20T10:58:36.659Z,10.33
2022-10-20T11:01:09.622Z,10.30
2022-10-20T11:03:46.994Z,10.17
2022-10-20T11:06:20.982Z,12.20
2022-10-20T11:08:58.215Z,13.27
2022-10-20T11:11:32.132Z,11.53
2022-10-20T11:14:08.076Z,13.27
2022-10-20T11:16:40.242Z,12.80
2022-10-20T11:19:25.546Z,10.90
2022-10-20T11:21:59.784Z,12.00
2022-10-20T11:24:32.277Z,12.50
2022-10-20T11:27:02.761Z,13.10
2022-10-20T11:29:32.558Z,12.43
2022-10-20T11:32:04.547Z,11.97
2022-10-20T11:34:36.146Z,11.90
2022-10-20T11:37:07.260Z,11.20
2022-10-20T11:39:37.196Z,12.23
2022-10-20T11:42:12.227Z,12.20
2022-10-20T11:44:41.329Z,11.97
2022-10-20T11:47:10.739Z,11.87
2022-10-20T11:49:39.736Z,12.03
2022-10-20T11:52:20.585Z,12.20
2022-10-20T11:55:00.259Z,10.60
2022-10-20T11:57:32.667Z,13.03
2022-10-20T12:03:17.107Z,12.27
2022-10-20T12:05:50.688Z,12.50
2022-10-20T12:08:29.929Z,12.53
2022-10-20T12:11:01.766Z,12.23
2022-10-20T12:13:34.870Z,12.00
2022-10-20T12:16:02.327Z,12.30
2022-10-20T12:18:30.438Z,12.17
2022-10-20T12:21:01.272Z,12.03
2022-10-20T12:23:49.200Z,12.17
2022-10-20T12:26:43.815Z,12.73
2022-10-20T12:29:30.896Z,11.50
2022-10-20T12:32:20.849Z,12.10
2022-10-20T12:34:50.430Z,12.67
2022-10-20T12:37:18.165Z,12.47
2022-10-20T12:39:45.850Z,12.33
2022-10-20T12:42:21.371Z,12.40
2022-10-20T12:44:49.112Z,13.47
2022-10-20T12:47:19.672Z,12.70
2022-10-20T12:49:53.704Z,12.43
2022-10-20T12:52:24.188Z,12.90
2022-10-20T12:54:55.788Z,12.60
2022-10-20T12:57:27.689Z,13.10
2022-10-20T12:59:55.135Z,13.73
2022-10-20T13:02:40.575Z,14.37
2022-10-20T13:05:22.855Z,12.70
2022-10-20T13:08:17.076Z,13.33
2022-10-20T13:10:46.122Z,13.60
2022-10-20T13:13:37.318Z,13.30
2022-10-20T13:16:06.616Z,12.40
2022-10-20T13:18:36.816Z,12.27
2022-10-20T13:21:08.539Z,12.47
2022-10-20T13:23:38.153Z,13.83
2022-10-20T13:26:14.293Z,13.50
2022-10-20T13:28:45.477Z,12.90
2022-10-20T13:31:17.584Z,13.50
2022-10-20T13:34:05.337Z,14.90
2022-10-20T13:36:40.507Z,13.87
2022-10-20T13:39:15.795Z,13.67
2022-10-20T13:41:52.486Z,15.33
2022-10-20T13:44:26.847Z,15.40
2022-10-20T13:47:01.966Z,15.20
2022-10-20T13:49:36.024Z,14.70
2022-10-20T13:52:05.908Z,15.30
2022-10-20T13:54:35.741Z,14.20
2022-10-20T13:57:04.746Z,15.73
2022-10-20T13:59:32.170Z,16.47
2022-10-20T14:02:00.457Z,16.00
2022-10-20T14:04:28.867Z,15.17
2022-10-20T14:07:02.752Z,17.53
2022-10-20T14:09:30.111Z,15.80
2022-10-20T14:12:00.805Z,15.93
2022-10-20T14:14:30.571Z,16.70
2022-10-20T14:16:58.957Z,15.90
2022-10-20T14:19:28.163Z,17.27
2022-10-20T14:21:57.156Z,17.63
2022-10-20T14:24:30.259Z,16.33
2022-10-20T14:29:28.842Z,16.33
2022-10-20T14:31:57.824Z,15.70
2022-10-20T14:34:28.378Z,16.30
2022-10-20T14:36:57.119Z,15.70
2022-10-20T14:39:33.455Z,15.57
2022-10-20T14:42:01.774Z,16.67
2022-10-20T14:44:31.772Z,16.23
2022-10-20T14:47:04.551Z,17.30
2022-10-20T14:49:33.285Z,16.07
2022-10-20T14:52:01.355Z,15.93
2022-10-20T14:57:24.512Z,16.23
2022-10-20T14:59:55.859Z,15.40
2022-10-20T15:02:26.355Z,16.93
2022-10-20T15:04:53.723Z,15.80
2022-10-20T15:07:23.238Z,16.00
2022-10-20T15:09:51.903Z,16.10
2022-10-20T15:12:20.244Z,15.83
2022-10-20T15:14:48.801Z,16.23
2022-10-20T15:17:34.494Z,16.73
2022-10-20T15:20:17.087Z,17.07
2022-10-20T15:22:44.781Z,17.07
2022-10-20T15:25:12.193Z,16.53
2022-10-20T15:27:41.320Z,16.53
2022-10-20T15:30:16.843Z,16.60
2022-10-20T15:32:45.684Z,16.67
2022-10-20T15:35:13.888Z,16.70
2022-10-20T15:37:41.295Z,16.40
2022-10-20T15:40:09.019Z,16.90
2022-10-20T15:42:36.622Z,16.10
2022-10-20T15:45:09.331Z,16.43
2022-10-20T15:47:36.852Z,15.57
2022-10-20T15:50:05.982Z,16.70
2022-10-20T15:52:33.440Z,15.57
2022-10-20T15:55:00.924Z,16.57
2022-10-20T15:57:28.668Z,15.40
2022-10-20T15:59:56.158Z,16.83
2022-10-20T16:02:23.556Z,16.20
2022-10-20T16:04:51.139Z,17.37
2022-10-20T16:07:19.991Z,17.17
2022-10-20T16:09:47.376Z,17.07
2022-10-20T16:12:14.857Z,16.60
2022-10-20T16:14:42.452Z,16.40
2022-10-20T16:17:09.833Z,17.17
2022-10-20T16:19:37.236Z,18.70
2022-10-20T16:22:04.599Z,17.43
2022-10-20T16:24:33.316Z,16.63
2022-10-20T16:27:00.820Z,16.87
2022-10-20T16:29:28.263Z,16.43
2022-10-20T16:31:55.634Z,15.83
2022-10-20T16:34:23.018Z,16.60
2022-10-20T16:36:50.412Z,16.83
2022-10-20T16:39:19.547Z,16.47
2022-10-20T16:41:48.375Z,15.97
2022-10-20T16:44:15.770Z,15.40
2022-10-20T16:46:43.387Z,15.30
2022-10-20T16:49:10.894Z,16.17
2022-10-20T16:51:38.274Z,15.77
2022-10-20T16:54:05.786Z,15.90
2022-10-20T16:56:33.163Z,15.63
2022-10-20T16:59:02.460Z,15.50
2022-10-20T17:01:29.979Z,15.50
2022-10-20T17:03:57.407Z,16.87
2022-10-20T17:06:26.404Z,15.90
2022-10-20T17:08:54.422Z,15.97
2022-10-20T17:11:23.066Z,16.37
2022-10-20T17:13:50.483Z,15.73
2022-10-20T17:16:21.511Z,15.80
2022-10-20T17:18:50.980Z,15.60
2022-10-20T17:21:18.367Z,15.53
2022-10-20T17:23:46.355Z,15.63
2022-10-20T17:26:14.740Z,15.80
2022-10-20T17:28:42.161Z,15.60
2022-10-20T17:31:10.316Z,17.10
2022-10-20T17:33:39.719Z,15.00
2022-10-20T17:36:07.537Z,16.23
2022-10-20T17:38:35.311Z,15.90
2022-10-20T17:41:06.232Z,15.27
2022-10-20T17:43:33.722Z,15.67
2022-10-20T17:46:01.918Z,16.37
2022-10-20T17:48:29.536Z,16.37
2022-10-20T17:51:02.073Z,16.60
2022-10-20T17:53:31.434Z,14.97
2022-10-20T17:56:01.287Z,16.13
2022-10-20T17:58:28.738Z,14.70
2022-10-20T18:00:57.152Z,15.90
2022-10-20T18:03:24.786Z,16.27
2022-10-20T18:05:52.134Z,15.10
2022-10-20T18:08:20.887Z,15.97
2022-10-20T18:10:48.993Z,17.37
2022-10-20T18:13:16.580Z,18.67
2022-10-20T18:15:44.314Z,18.37
2022-10-20T18:18:11.923Z,17.13
2022-10-20T18:20:39.269Z,15.90
2022-10-20T18:23:06.670Z,15.20
2022-10-20T18:25:36.926Z,17.10
2022-10-20T18:28:04.459Z,15.27
2022-10-20T18:30:31.900Z,16.67
2022-10-20T18:32:59.278Z,15.40
2022-10-20T18:35:26.674Z,17.10
2022-10-20T18:37:57.453Z,19.07
2022-10-20T18:40:24.944Z,17.83
2022-10-20T18:42:53.723Z,17.27
2022-10-20T18:45:23.781Z,17.47
2022-10-20T18:47:53.384Z,17.03
2022-10-20T18:50:20.872Z,16.40
2022-10-20T18:52:48.252Z,16.20
2022-10-20T18:55:15.660Z,17.60
2022-10-20T18:57:43.032Z,17.63
2022-10-20T19:00:12.594Z,16.97
2022-10-20T19:02:40.040Z,15.53
2022-10-20T19:05:07.818Z,16.03
2022-10-20T19:07:35.564Z,17.37
2022-10-20T19:10:03.243Z,15.87
2022-10-20T19:12:30.648Z,16.33
2022-10-20T19:14:58.135Z,16.80
2022-10-20T19:17:26.936Z,15.50
2022-10-20T19:19:54.530Z,16.53
2022-10-20T19:22:26.896Z,15.53
2022-10-20T19:24:56.616Z,17.53
2022-10-20T19:27:27.001Z,15.90
2022-10-20T19:29:55.764Z,15.93
2022-10-20T19:32:23.144Z,15.30
2022-10-20T19:34:51.926Z,16.07
2022-10-20T19:37:19.497Z,16.07
2022-10-20T19:39:46.884Z,15.80
2022-10-20T19:42:14.298Z,16.00
2022-10-20T19:44:41.717Z,15.10
2022-10-20T19:47:09.160Z,14.90
2022-10-20T19:49:37.424Z,15.87
2022-10-20T19:52:06.726Z,15.60
2022-10-20T19:54:34.163Z,16.10
2022-10-20T19:57:01.588Z,15.87
2022-10-20T19:59:28.982Z,15.40
2022-10-20T20:01:56.390Z,15.83
2022-10-20T20:04:23.849Z,16.70
2022-10-20T20:06:51.238Z,15.37
2022-10-20T20:09:19.992Z,17.07
2022-10-20T20:11:47.399Z,16.97
2022-10-20T20:14:15.729Z,15.90
2022-10-20T20:19:15.992Z,16.80
2022-10-20T20:21:43.322Z,16.03
2022-10-20T20:24:11.938Z,15.70
2022-10-20T20:26:40.680Z,17.10
2022-10-20T20:29:08.079Z,17.00
2022-10-20T20:31:35.541Z,16.20
2022-10-20T20:34:02.916Z,16.03
2022-10-20T20:36:30.297Z,16.80
2022-10-20T20:38:58.916Z,16.07
2022-10-20T20:41:27.001Z,17.00
2022-10-20T20:43:55.805Z,16.20
2022-10-20T20:46:24.101Z,16.47
2022-10-20T20:48:51.998Z,17.60
2022-10-20T20:51:20.434Z,16.70
2022-10-20T20:53:47.885Z,15.97
2022-10-20T20:56:16.460Z,15.60
2022-10-20T20:58:45.241Z,16.67
2022-10-20T21:01:14.768Z,16.50
2022-10-20T21:03:43.325Z,16.30
2022-10-20T21:06:11.695Z,16.70
2022-10-20T21:08:39.796Z,18.07
2022-10-20T21:11:07.788Z,16.73
2022-10-20T21:13:35.483Z,16.10
2022-10-20T21:16:09.841Z,16.03
2022-10-20T21:18:38.734Z,16.80
2022-10-20T21:21:12.949Z,16.90
2022-10-20T21:23:41.004Z,16.63
2022-10-20T21:26:08.847Z,17.97
2022-10-20T21:28:36.573Z,16.70
2022-10-20T21:31:04.980Z,18.10
2022-10-20T21:33:32.339Z,18.30
2022-10-20T21:36:02.544Z,18.40
2022-10-20T21:38:30.467Z,17.00
2022-10-20T21:41:02.062Z,18.00
2022-10-20T21:43:29.772Z,17.10
2022-10-20T21:45:57.155Z,15.37
2022-10-20T21:48:24.704Z,17.37
2022-10-20T21:50:52.140Z,17.30
2022-10-20T21:53:21.227Z,17.10
2022-10-20T21:55:48.598Z,16.60
2022-10-20T21:58:18.381Z,16.53
2022-10-20T22:00:45.786Z,17.47
2022-10-20T22:03:13.881Z,17.77
2022-10-20T22:05:41.251Z,17.13
2022-10-20T22:08:08.647Z,17.13
2022-10-20T22:10:38.185Z,17.40
2022-10-20T22:13:05.616Z,16.70
2022-10-20T22:15:37.253Z,17.40
2022-10-20T22:18:04.715Z,18.13
2022-10-20T22:20:32.073Z,16.70
2022-10-20T22:22:59.475Z,17.63
2022-10-20T22:25:26.888Z,16.77
2022-10-20T22:27:55.655Z,17.40
2022-10-20T22:30:23.022Z,16.73
2022-10-20T22:32:50.383Z,18.27
2022-10-20T22:35:17.907Z,18.67
2022-10-20T22:37:45.340Z,18.47
2022-10-20T22:40:13.139Z,18.33
2022-10-20T22:42:41.116Z,17.47
2022-10-20T22:45:11.376Z,18.30
2022-10-20T22:47:38.767Z,18.53
2022-10-20T22:50:06.631Z,17.73
2022-10-20T22:52:34.001Z,18.37
2022-10-20T22:55:01.380Z,17.57
2022-10-20T22:57:28.730Z,19.17
2022-10-20T22:59:56.106Z,17.90
2022-10-20T23:02:25.150Z,17.63
2022-10-20T23:04:52.559Z,17.37
2022-10-20T23:07:19.962Z,18.00
2022-10-20T23:09:48.035Z,18.37
2022-10-20T23:12:15.458Z,17.40
2022-10-20T23:14:42.804Z,17.50
2022-10-20T23:17:10.187Z,18.50
2022-10-20T23:19:38.922Z,17.00
2022-10-20T23:22:06.282Z,17.43
2022-10-20T23:24:33.706Z,17.80
2022-10-20T23:27:01.067Z,18.73
2022-10-20T23:29:28.870Z,17.00
2022-10-20T23:31:56.277Z,17.63
2022-10-20T23:34:23.877Z,17.37
2022-10-20T23:36:53.054Z,17.67
2022-10-20T23:39:20.487Z,17.13
2022-10-20T23:41:47.903Z,18.10
2022-10-20T23:44:15.330Z,17.23
2022-10-20T23:46:42.729Z,16.80
2022-10-20T23:49:10.120Z,16.57
2022-10-20T23:51:37.520Z,16.33
2022-10-20T23:54:06.406Z,16.47
2022-10-20T23:56:33.796Z,16.70
2022-10-20T23:59:01.223Z,16.30
